sensor_id;sensor_type;location;lat;lon;timestamp;pressure;altitude;pressure_sealevel;temperature;humidity
75717;BME280;64333;50.138;14.332;2023-03-01T00:02:16;99276.91;;;-3.04;79.25
75717;BME280;64333;50.138;14.332;2023-03-01T00:04:41;99268.66;;;-2.97;79.22
75717;BME280;64333;50.138;14.332;2023-03-01T00:07:06;99280.53;;;-2.94;79.35
75717;BME280;64333;50.138;14.332;2023-03-01T00:09:32;99277.91;;;-2.97;78.94
75717;BME280;64333;50.138;14.332;2023-03-01T00:11:57;99284.44;;;-3.05;79.33
75717;BME280;64333;50.138;14.332;2023-03-01T00:14:22;99280.31;;;-3.02;79.65
75717;BME280;64333;50.138;14.332;2023-03-01T00:16:49;99280.09;;;-3.11;79.62
75717;BME280;64333;50.138;14.332;2023-03-01T00:19:19;99282.81;;;-3.03;79.72
75717;BME280;64333;50.138;14.332;2023-03-01T00:21:45;99285.34;;;-3.03;79.51
75717;BME280;64333;50.138;14.332;2023-03-01T00:24:10;99275.88;;;-3.10;79.83
75717;BME280;64333;50.138;14.332;2023-03-01T00:26:37;99277.47;;;-3.14;80.08
75717;BME280;64333;50.138;14.332;2023-03-01T00:29:02;99280.94;;;-3.10;80.12
75717;BME280;64333;50.138;14.332;2023-03-01T00:31:30;99272.53;;;-3.09;79.83
75717;BME280;64333;50.138;14.332;2023-03-01T00:33:58;99273.31;;;-3.13;79.89
75717;BME280;64333;50.138;14.332;2023-03-01T00:36:26;99268.25;;;-3.13;80.15
75717;BME280;64333;50.138;14.332;2023-03-01T00:38:52;99266.56;;;-3.13;80.27
75717;BME280;64333;50.138;14.332;2023-03-01T00:41:19;99266.50;;;-3.16;80.08
75717;BME280;64333;50.138;14.332;2023-03-01T00:43:45;99265.63;;;-3.16;80.18
75717;BME280;64333;50.138;14.332;2023-03-01T00:46:18;99248.63;;;-3.23;80.47
75717;BME280;64333;50.138;14.332;2023-03-01T00:48:45;99253.91;;;-3.14;80.37
75717;BME280;64333;50.138;14.332;2023-03-01T00:51:19;99248.09;;;-3.12;79.97
75717;BME280;64333;50.138;14.332;2023-03-01T00:53:46;99239.75;;;-3.08;79.83
75717;BME280;64333;50.138;14.332;2023-03-01T00:56:13;99249.91;;;-3.06;79.90
75717;BME280;64333;50.138;14.332;2023-03-01T00:58:39;99240.53;;;-3.10;79.64
75717;BME280;64333;50.138;14.332;2023-03-01T01:01:13;99247.28;;;-3.09;79.61
75717;BME280;64333;50.138;14.332;2023-03-01T01:03:53;99246.28;;;-3.16;79.82
75717;BME280;64333;50.138;14.332;2023-03-01T01:06:24;99244.75;;;-3.09;80.21
75717;BME280;64333;50.138;14.332;2023-03-01T01:08:51;99254.75;;;-3.14;79.98
75717;BME280;64333;50.138;14.332;2023-03-01T01:11:17;99249.47;;;-3.23;80.54
75717;BME280;64333;50.138;14.332;2023-03-01T01:13:45;99244.44;;;-3.23;80.46
75717;BME280;64333;50.138;14.332;2023-03-01T01:16:11;99241.94;;;-3.21;80.61
75717;BME280;64333;50.138;14.332;2023-03-01T01:18:36;99239.94;;;-3.34;81.31
75717;BME280;64333;50.138;14.332;2023-03-01T01:21:10;99241.59;;;-3.35;80.76
75717;BME280;64333;50.138;14.332;2023-03-01T01:23:37;99222.75;;;-3.47;80.87
75717;BME280;64333;50.138;14.332;2023-03-01T01:26:04;99242.25;;;-3.42;80.79
75717;BME280;64333;50.138;14.332;2023-03-01T01:28:30;99243.78;;;-3.48;81.68
75717;BME280;64333;50.138;14.332;2023-03-01T01:30:55;99238.63;;;-3.51;81.60
75717;BME280;64333;50.138;14.332;2023-03-01T01:33:20;99224.03;;;-3.63;82.25
75717;BME280;64333;50.138;14.332;2023-03-01T01:35:46;99229.06;;;-3.63;82.22
75717;BME280;64333;50.138;14.332;2023-03-01T01:38:11;99232.34;;;-3.65;82.18
75717;BME280;64333;50.138;14.332;2023-03-01T01:40:46;99227.25;;;-3.68;82.76
75717;BME280;64333;50.138;14.332;2023-03-01T01:45:54;99230.25;;;-3.81;83.31
75717;BME280;64333;50.138;14.332;2023-03-01T01:48:22;99222.47;;;-3.89;83.43
75717;BME280;64333;50.138;14.332;2023-03-01T01:50:57;99223.94;;;-3.97;83.13
75717;BME280;64333;50.138;14.332;2023-03-01T01:53:24;99223.00;;;-4.00;83.74
75717;BME280;64333;50.138;14.332;2023-03-01T01:55:56;99213.41;;;-4.12;83.54
75717;BME280;64333;50.138;14.332;2023-03-01T01:58:25;99219.41;;;-4.08;84.53
75717;BME280;64333;50.138;14.332;2023-03-01T02:00:53;99221.19;;;-4.04;84.35
75717;BME280;64333;50.138;14.332;2023-03-01T02:03:28;99218.47;;;-4.12;84.70
75717;BME280;64333;50.138;14.332;2023-03-01T02:08:28;99206.47;;;-4.19;84.46
75717;BME280;64333;50.138;14.332;2023-03-01T02:10:56;99220.13;;;-4.12;84.64
75717;BME280;64333;50.138;14.332;2023-03-01T02:13:23;99215.19;;;-4.08;84.52
75717;BME280;64333;50.138;14.332;2023-03-01T02:15:48;99200.81;;;-4.12;84.52
75717;BME280;64333;50.138;14.332;2023-03-01T02:18:17;99210.84;;;-4.13;85.26
75717;BME280;64333;50.138;14.332;2023-03-01T02:23:30;99204.00;;;-4.17;85.00
75717;BME280;64333;50.138;14.332;2023-03-01T02:26:05;99202.22;;;-4.21;84.87
75717;BME280;64333;50.138;14.332;2023-03-01T02:28:35;99188.56;;;-4.28;85.38
75717;BME280;64333;50.138;14.332;2023-03-01T02:31:02;99199.41;;;-4.32;85.06
75717;BME280;64333;50.138;14.332;2023-03-01T02:33:47;99195.25;;;-4.30;86.12
75717;BME280;64333;50.138;14.332;2023-03-01T02:36:36;99192.59;;;-4.34;85.95
75717;BME280;64333;50.138;14.332;2023-03-01T02:39:05;99199.47;;;-4.29;86.02
75717;BME280;64333;50.138;14.332;2023-03-01T02:41:35;99188.63;;;-4.26;85.79
75717;BME280;64333;50.138;14.332;2023-03-01T02:44:02;99190.19;;;-4.30;85.16
75717;BME280;64333;50.138;14.332;2023-03-01T02:46:27;99186.75;;;-4.33;86.15
75717;BME280;64333;50.138;14.332;2023-03-01T02:48:55;99190.88;;;-4.35;86.15
75717;BME280;64333;50.138;14.332;2023-03-01T02:51:31;99195.13;;;-4.34;85.88
75717;BME280;64333;50.138;14.332;2023-03-01T02:54:17;99199.97;;;-4.40;86.54
75717;BME280;64333;50.138;14.332;2023-03-01T02:56:45;99203.63;;;-4.29;86.89
75717;BME280;64333;50.138;14.332;2023-03-01T02:59:14;99203.56;;;-4.32;86.65
75717;BME280;64333;50.138;14.332;2023-03-01T03:01:41;99185.03;;;-4.34;87.43
75717;BME280;64333;50.138;14.332;2023-03-01T03:04:09;99196.34;;;-4.20;86.58
75717;BME280;64333;50.138;14.332;2023-03-01T03:06:35;99202.53;;;-4.11;86.51
75717;BME280;64333;50.138;14.332;2023-03-01T03:09:02;99202.53;;;-4.09;86.63
75717;BME280;64333;50.138;14.332;2023-03-01T03:11:28;99199.13;;;-4.11;86.58
75717;BME280;64333;50.138;14.332;2023-03-01T03:13:53;99194.09;;;-4.11;85.70
75717;BME280;64333;50.138;14.332;2023-03-01T03:16:20;99196.25;;;-4.23;85.43
75717;BME280;64333;50.138;14.332;2023-03-01T03:18:46;99200.47;;;-4.24;85.84
75717;BME280;64333;50.138;14.332;2023-03-01T03:21:12;99190.06;;;-4.34;85.75
75717;BME280;64333;50.138;14.332;2023-03-01T03:23:38;99182.28;;;-4.42;85.96
75717;BME280;64333;50.138;14.332;2023-03-01T03:26:04;99191.69;;;-4.36;86.40
75717;BME280;64333;50.138;14.332;2023-03-01T03:28:33;99198.47;;;-4.35;86.95
75717;BME280;64333;50.138;14.332;2023-03-01T03:31:00;99183.16;;;-4.41;86.08
75717;BME280;64333;50.138;14.332;2023-03-01T03:33:32;99186.56;;;-4.39;85.70
75717;BME280;64333;50.138;14.332;2023-03-01T03:35:57;99159.47;;;-4.46;86.52
75717;BME280;64333;50.138;14.332;2023-03-01T03:38:23;99145.53;;;-4.63;86.30
75717;BME280;64333;50.138;14.332;2023-03-01T03:41:04;99162.03;;;-4.45;87.55
75717;BME280;64333;50.138;14.332;2023-03-01T03:43:32;99161.44;;;-4.36;87.24
75717;BME280;64333;50.138;14.332;2023-03-01T03:45:58;99159.53;;;-4.43;87.08
75717;BME280;64333;50.138;14.332;2023-03-01T03:48:24;99168.34;;;-4.29;86.59
75717;BME280;64333;50.138;14.332;2023-03-01T03:50:51;99168.03;;;-4.40;86.66
75717;BME280;64333;50.138;14.332;2023-03-01T03:53:18;99161.19;;;-4.45;87.17
75717;BME280;64333;50.138;14.332;2023-03-01T03:55:44;99162.16;;;-4.40;88.11
75717;BME280;64333;50.138;14.332;2023-03-01T03:58:10;99148.41;;;-4.51;87.30
75717;BME280;64333;50.138;14.332;2023-03-01T04:00:38;99145.13;;;-4.49;88.86
75717;BME280;64333;50.138;14.332;2023-03-01T04:03:04;99165.50;;;-4.41;88.12
75717;BME280;64333;50.138;14.332;2023-03-01T04:05:29;99165.63;;;-4.37;88.65
75717;BME280;64333;50.138;14.332;2023-03-01T04:07:55;99170.63;;;-4.38;87.73
75717;BME280;64333;50.138;14.332;2023-03-01T04:10:29;99162.28;;;-4.36;88.81
75717;BME280;64333;50.138;14.332;2023-03-01T04:12:55;99163.00;;;-4.40;88.55
75717;BME280;64333;50.138;14.332;2023-03-01T04:15:21;99162.97;;;-4.41;87.45
75717;BME280;64333;50.138;14.332;2023-03-01T04:17:49;99159.72;;;-4.37;88.06
75717;BME280;64333;50.138;14.332;2023-03-01T04:20:17;99159.84;;;-4.33;87.60
75717;BME280;64333;50.138;14.332;2023-03-01T04:22:43;99156.56;;;-4.30;88.19
75717;BME280;64333;50.138;14.332;2023-03-01T04:25:12;99158.38;;;-4.26;88.21
75717;BME280;64333;50.138;14.332;2023-03-01T04:27:39;99151.69;;;-4.24;88.05
75717;BME280;64333;50.138;14.332;2023-03-01T04:30:05;99150.84;;;-4.25;88.17
75717;BME280;64333;50.138;14.332;2023-03-01T04:32:31;99150.56;;;-4.34;88.11
75717;BME280;64333;50.138;14.332;2023-03-01T04:34:57;99162.25;;;-4.37;88.20
75717;BME280;64333;50.138;14.332;2023-03-01T04:37:22;99160.66;;;-4.35;88.64
75717;BME280;64333;50.138;14.332;2023-03-01T04:39:49;99159.66;;;-4.40;88.67
75717;BME280;64333;50.138;14.332;2023-03-01T04:42:15;99177.31;;;-4.39;88.53
75717;BME280;64333;50.138;14.332;2023-03-01T04:44:42;99165.31;;;-4.47;88.57
75717;BME280;64333;50.138;14.332;2023-03-01T04:47:07;99171.19;;;-4.48;88.30
75717;BME280;64333;50.138;14.332;2023-03-01T04:49:32;99174.59;;;-4.46;89.80
75717;BME280;64333;50.138;14.332;2023-03-01T04:51:58;99176.03;;;-4.54;89.30
75717;BME280;64333;50.138;14.332;2023-03-01T04:54:27;99183.59;;;-4.54;88.63
75717;BME280;64333;50.138;14.332;2023-03-01T04:56:53;99181.78;;;-4.58;88.08
75717;BME280;64333;50.138;14.332;2023-03-01T04:59:18;99168.75;;;-4.73;88.76
75717;BME280;64333;50.138;14.332;2023-03-01T05:01:50;99177.97;;;-4.74;88.97
75717;BME280;64333;50.138;14.332;2023-03-01T05:04:16;99177.84;;;-4.78;88.58
75717;BME280;64333;50.138;14.332;2023-03-01T05:06:42;99173.53;;;-4.81;89.05
75717;BME280;64333;50.138;14.332;2023-03-01T05:09:07;99170.09;;;-4.84;89.20
75717;BME280;64333;50.138;14.332;2023-03-01T05:11:32;99167.13;;;-4.71;89.64
75717;BME280;64333;50.138;14.332;2023-03-01T05:14:03;99162.97;;;-4.69;89.63
75717;BME280;64333;50.138;14.332;2023-03-01T05:16:28;99167.81;;;-4.77;90.08
75717;BME280;64333;50.138;14.332;2023-03-01T05:18:55;99162.84;;;-4.74;89.33
75717;BME280;64333;50.138;14.332;2023-03-01T05:21:21;99158.16;;;-4.62;89.22
75717;BME280;64333;50.138;14.332;2023-03-01T05:23:47;99150.66;;;-4.60;88.23
75717;BME280;64333;50.138;14.332;2023-03-01T05:26:13;99162.44;;;-4.59;87.54
75717;BME280;64333;50.138;14.332;2023-03-01T05:28:38;99122.97;;;-4.88;87.52
75717;BME280;64333;50.138;14.332;2023-03-01T05:31:05;99154.53;;;-4.71;87.02
75717;BME280;64333;50.138;14.332;2023-03-01T05:33:38;99161.63;;;-4.58;89.57
75717;BME280;64333;50.138;14.332;2023-03-01T05:36:05;99154.31;;;-4.49;89.85
75717;BME280;64333;50.138;14.332;2023-03-01T05:38:31;99149.09;;;-4.55;88.59
75717;BME280;64333;50.138;14.332;2023-03-01T05:40:56;99151.72;;;-4.52;89.42
75717;BME280;64333;50.138;14.332;2023-03-01T05:43:21;99159.28;;;-4.52;90.10
75717;BME280;64333;50.138;14.332;2023-03-01T05:45:47;99154.16;;;-4.55;90.13
75717;BME280;64333;50.138;14.332;2023-03-01T05:48:13;99154.88;;;-4.59;89.08
75717;BME280;64333;50.138;14.332;2023-03-01T05:50:41;99148.28;;;-4.56;89.71
75717;BME280;64333;50.138;14.332;2023-03-01T05:53:10;99141.31;;;-4.35;89.04
75717;BME280;64333;50.138;14.332;2023-03-01T05:55:36;99152.72;;;-4.18;86.88
75717;BME280;64333;50.138;14.332;2023-03-01T05:58:05;99146.00;;;-3.86;84.84
75717;BME280;64333;50.138;14.332;2023-03-01T06:00:31;99127.56;;;-3.51;82.24
75717;BME280;64333;50.138;14.332;2023-03-01T06:02:59;99130.63;;;-2.93;80.65
75717;BME280;64333;50.138;14.332;2023-03-01T06:05:25;99125.09;;;-2.37;77.95
75717;BME280;64333;50.138;14.332;2023-03-01T06:07:51;99150.44;;;-1.91;75.63
75717;BME280;64333;50.138;14.332;2023-03-01T06:10:19;99161.88;;;-1.19;73.93
75717;BME280;64333;50.138;14.332;2023-03-01T06:12:45;99167.22;;;-0.45;69.97
75717;BME280;64333;50.138;14.332;2023-03-01T06:15:13;99168.56;;;-0.06;68.07
75717;BME280;64333;50.138;14.332;2023-03-01T06:17:40;99166.00;;;0.73;65.67
75717;BME280;64333;50.138;14.332;2023-03-01T06:20:13;99163.03;;;1.25;63.69
75717;BME280;64333;50.138;14.332;2023-03-01T06:22:40;99150.66;;;1.90;62.00
75717;BME280;64333;50.138;14.332;2023-03-01T06:25:06;99163.56;;;2.45;59.80
75717;BME280;64333;50.138;14.332;2023-03-01T06:27:32;99173.00;;;3.02;57.72
75717;BME280;64333;50.138;14.332;2023-03-01T06:29:57;99162.75;;;3.29;57.00
75717;BME280;64333;50.138;14.332;2023-03-01T06:32:23;99175.47;;;3.66;55.79
75717;BME280;64333;50.138;14.332;2023-03-01T06:34:49;99168.41;;;4.31;54.50
75717;BME280;64333;50.138;14.332;2023-03-01T06:37:14;99161.28;;;4.77;52.79
75717;BME280;64333;50.138;14.332;2023-03-01T06:39:40;99161.94;;;5.03;50.57
75717;BME280;64333;50.138;14.332;2023-03-01T06:42:07;99165.97;;;5.32;50.68
75717;BME280;64333;50.138;14.332;2023-03-01T06:44:32;99161.72;;;5.29;49.56
75717;BME280;64333;50.138;14.332;2023-03-01T06:46:58;99160.31;;;5.86;48.81
75717;BME280;64333;50.138;14.332;2023-03-01T06:49:24;99163.50;;;6.06;47.05
75717;BME280;64333;50.138;14.332;2023-03-01T06:51:49;99158.13;;;6.25;46.72
75717;BME280;64333;50.138;14.332;2023-03-01T06:54:15;99156.09;;;6.50;46.25
75717;BME280;64333;50.138;14.332;2023-03-01T06:56:40;99162.09;;;7.03;44.41
75717;BME280;64333;50.138;14.332;2023-03-01T06:59:05;99163.16;;;7.43;42.64
75717;BME280;64333;50.138;14.332;2023-03-01T07:01:31;99158.91;;;7.88;42.48
75717;BME280;64333;50.138;14.332;2023-03-01T07:03:57;99164.31;;;7.73;42.03
75717;BME280;64333;50.138;14.332;2023-03-01T07:06:22;99168.56;;;8.21;41.61
75717;BME280;64333;50.138;14.332;2023-03-01T07:08:48;99166.00;;;8.59;40.37
75717;BME280;64333;50.138;14.332;2023-03-01T07:11:14;99173.50;;;9.06;40.17
75717;BME280;64333;50.138;14.332;2023-03-01T07:13:39;99168.22;;;9.12;38.60
75717;BME280;64333;50.138;14.332;2023-03-01T07:16:05;99172.09;;;9.63;38.72
75717;BME280;64333;50.138;14.332;2023-03-01T07:18:31;99152.38;;;9.60;38.06
75717;BME280;64333;50.138;14.332;2023-03-01T07:20:56;99172.72;;;10.33;37.79
75717;BME280;64333;50.138;14.332;2023-03-01T07:23:22;99178.75;;;10.34;37.05
75717;BME280;64333;50.138;14.332;2023-03-01T07:25:52;99180.75;;;11.08;36.44
75717;BME280;64333;50.138;14.332;2023-03-01T07:28:18;99185.78;;;11.12;35.62
75717;BME280;64333;50.138;14.332;2023-03-01T07:30:43;99186.59;;;11.14;35.21
75717;BME280;64333;50.138;14.332;2023-03-01T07:33:08;99189.97;;;11.16;34.81
75717;BME280;64333;50.138;14.332;2023-03-01T07:35:34;99181.31;;;11.43;35.15
75717;BME280;64333;50.138;14.332;2023-03-01T07:37:59;99184.78;;;11.16;35.77
75717;BME280;64333;50.138;14.332;2023-03-01T07:40:24;99182.00;;;10.96;36.21
75717;BME280;64333;50.138;14.332;2023-03-01T07:42:55;99179.91;;;10.80;36.07
75717;BME280;64333;50.138;14.332;2023-03-01T07:45:20;99178.41;;;11.52;34.72
75717;BME280;64333;50.138;14.332;2023-03-01T07:47:46;99177.94;;;11.67;34.45
75717;BME280;64333;50.138;14.332;2023-03-01T07:50:11;99169.03;;;12.46;33.53
75717;BME280;64333;50.138;14.332;2023-03-01T07:52:38;99167.78;;;12.10;33.18
75717;BME280;64333;50.138;14.332;2023-03-01T07:55:04;99154.53;;;12.85;32.37
75717;BME280;64333;50.138;14.332;2023-03-01T07:57:29;99161.75;;;13.22;31.76
75717;BME280;64333;50.138;14.332;2023-03-01T07:59:55;99171.19;;;13.44;31.12
75717;BME280;64333;50.138;14.332;2023-03-01T08:02:20;99167.72;;;13.45;30.80
75717;BME280;64333;50.138;14.332;2023-03-01T08:04:45;99171.53;;;13.37;30.82
75717;BME280;64333;50.138;14.332;2023-03-01T08:07:11;99175.31;;;13.28;30.87
75717;BME280;64333;50.138;14.332;2023-03-01T08:09:36;99165.75;;;13.90;30.56
75717;BME280;64333;50.138;14.332;2023-03-01T08:12:03;99167.59;;;13.88;30.52
75717;BME280;64333;50.138;14.332;2023-03-01T08:14:30;99172.72;;;14.48;30.03
75717;BME280;64333;50.138;14.332;2023-03-01T08:16:55;99167.28;;;14.34;30.48
75717;BME280;64333;50.138;14.332;2023-03-01T08:19:21;99164.63;;;14.16;30.29
75717;BME280;64333;50.138;14.332;2023-03-01T08:21:46;99163.63;;;14.75;29.25
75717;BME280;64333;50.138;14.332;2023-03-01T08:24:11;99100.25;;;14.41;29.94
75717;BME280;64333;50.138;14.332;2023-03-01T08:26:37;99155.38;;;13.90;30.70
75717;BME280;64333;50.138;14.332;2023-03-01T08:29:03;99151.25;;;13.66;30.82
75717;BME280;64333;50.138;14.332;2023-03-01T08:31:34;99148.91;;;13.80;30.60
75717;BME280;64333;50.138;14.332;2023-03-01T08:34:02;99138.88;;;13.91;30.16
75717;BME280;64333;50.138;14.332;2023-03-01T08:36:30;99139.53;;;14.72;29.09
75717;BME280;64333;50.138;14.332;2023-03-01T08:38:56;99135.66;;;14.43;29.05
75717;BME280;64333;50.138;14.332;2023-03-01T08:41:22;99141.19;;;13.17;31.15
75717;BME280;64333;50.138;14.332;2023-03-01T08:43:48;99144.66;;;12.73;31.28
75717;BME280;64333;50.138;14.332;2023-03-01T08:46:13;99145.75;;;12.22;31.12
75717;BME280;64333;50.138;14.332;2023-03-01T08:48:39;99138.22;;;14.26;29.58
75717;BME280;64333;50.138;14.332;2023-03-01T08:51:14;99141.41;;;15.05;28.45
75717;BME280;64333;50.138;14.332;2023-03-01T08:53:41;99141.63;;;13.48;30.46
75717;BME280;64333;50.138;14.332;2023-03-01T08:56:07;99141.50;;;12.65;30.66
75717;BME280;64333;50.138;14.332;2023-03-01T08:58:32;99125.44;;;12.34;32.58
75717;BME280;64333;50.138;14.332;2023-03-01T09:00:58;99144.19;;;12.41;31.52
75717;BME280;64333;50.138;14.332;2023-03-01T09:03:25;99111.47;;;13.24;31.38
75717;BME280;64333;50.138;14.332;2023-03-01T09:05:51;99125.38;;;13.23;30.51
75717;BME280;64333;50.138;14.332;2023-03-01T09:08:17;99121.28;;;13.18;30.85
75717;BME280;64333;50.138;14.332;2023-03-01T09:10:43;99108.78;;;13.67;30.56
75717;BME280;64333;50.138;14.332;2023-03-01T09:13:09;99114.75;;;13.69;30.01
75717;BME280;64333;50.138;14.332;2023-03-01T09:15:36;99106.44;;;13.61;30.41
75717;BME280;64333;50.138;14.332;2023-03-01T09:18:02;99118.47;;;14.95;30.59
75717;BME280;64333;50.138;14.332;2023-03-01T09:20:27;99114.44;;;13.77;29.63
75717;BME280;64333;50.138;14.332;2023-03-01T09:22:53;99104.31;;;13.71;29.80
75717;BME280;64333;50.138;14.332;2023-03-01T09:25:18;99115.44;;;14.68;29.18
75717;BME280;64333;50.138;14.332;2023-03-01T09:27:44;99114.88;;;14.97;29.02
75717;BME280;64333;50.138;14.332;2023-03-01T09:30:09;99110.53;;;15.33;27.77
75717;BME280;64333;50.138;14.332;2023-03-01T09:32:35;99115.78;;;15.83;27.51
75717;BME280;64333;50.138;14.332;2023-03-01T09:35:00;99100.38;;;16.43;26.74
75717;BME280;64333;50.138;14.332;2023-03-01T09:37:28;99105.31;;;16.48;25.73
75717;BME280;64333;50.138;14.332;2023-03-01T09:39:54;99109.88;;;16.75;25.79
75717;BME280;64333;50.138;14.332;2023-03-01T09:42:19;99100.88;;;16.81;25.18
75717;BME280;64333;50.138;14.332;2023-03-01T09:45:27;99097.09;;;17.31;24.64
75717;BME280;64333;50.138;14.332;2023-03-01T09:47:56;99070.03;;;17.32;24.64
75717;BME280;64333;50.138;14.332;2023-03-01T09:50:22;99091.69;;;17.34;24.25
75717;BME280;64333;50.138;14.332;2023-03-01T09:53:30;99095.38;;;17.45;24.21
75717;BME280;64333;50.138;14.332;2023-03-01T10:09:00;99071.81;;;17.89;23.15
75717;BME280;64333;50.138;14.332;2023-03-01T10:12:40;99078.84;;;17.74;23.37
75717;BME280;64333;50.138;14.332;2023-03-01T10:16:02;99069.75;;;17.52;23.54
75717;BME280;64333;50.138;14.332;2023-03-01T10:19:21;99064.25;;;17.70;23.38
75717;BME280;64333;50.138;14.332;2023-03-01T10:22:42;99062.28;;;17.46;23.60
75717;BME280;64333;50.138;14.332;2023-03-01T10:29:04;99047.66;;;19.33;21.49
75717;BME280;64333;50.138;14.332;2023-03-01T10:35:26;99045.38;;;19.54;20.90
75717;BME280;64333;50.138;14.332;2023-03-01T10:38:15;99060.69;;;19.60;21.06
75717;BME280;64333;50.138;14.332;2023-03-01T10:44:09;99050.06;;;19.10;21.15
75717;BME280;64333;50.138;14.332;2023-03-01T10:47:02;99050.72;;;19.65;20.62
75717;BME280;64333;50.138;14.332;2023-03-01T10:49:34;99048.41;;;19.85;20.27
75717;BME280;64333;50.138;14.332;2023-03-01T10:55:37;99039.50;;;20.00;20.61
75717;BME280;64333;50.138;14.332;2023-03-01T10:58:26;99017.19;;;19.06;21.03
75717;BME280;64333;50.138;14.332;2023-03-01T11:03:44;99031.66;;;19.11;20.98
75717;BME280;64333;50.138;14.332;2023-03-01T11:14:00;98997.63;;;17.49;21.93
75717;BME280;64333;50.138;14.332;2023-03-01T11:16:34;99015.53;;;19.05;21.10
75717;BME280;64333;50.138;14.332;2023-03-01T11:19:20;99016.66;;;19.01;21.40
75717;BME280;64333;50.138;14.332;2023-03-01T11:22:02;98999.44;;;19.36;21.09
75717;BME280;64333;50.138;14.332;2023-03-01T11:24:33;99020.06;;;18.36;21.49
75717;BME280;64333;50.138;14.332;2023-03-01T11:27:03;99004.31;;;18.64;21.39
75717;BME280;64333;50.138;14.332;2023-03-01T11:30:12;98996.09;;;19.84;20.54
75717;BME280;64333;50.138;14.332;2023-03-01T11:32:46;98983.47;;;19.89;20.51
75717;BME280;64333;50.138;14.332;2023-03-01T11:35:27;98989.34;;;19.92;20.59
75717;BME280;64333;50.138;14.332;2023-03-01T11:40:47;98983.34;;;20.03;20.33
75717;BME280;64333;50.138;14.332;2023-03-01T11:43:28;98981.28;;;20.44;19.66
75717;BME280;64333;50.138;14.332;2023-03-01T11:46:27;98980.72;;;20.15;20.08
75717;BME280;64333;50.138;14.332;2023-03-01T12:00:23;98959.06;;;20.71;19.72
75717;BME280;64333;50.138;14.332;2023-03-01T12:03:09;98936.44;;;21.16;19.23
75717;BME280;64333;50.138;14.332;2023-03-01T12:08:41;98955.19;;;20.53;18.91
75717;BME280;64333;50.138;14.332;2023-03-01T12:28:30;98936.94;;;22.09;18.34
75717;BME280;64333;50.138;14.332;2023-03-01T12:35:49;98934.78;;;21.48;19.05
75717;BME280;64333;50.138;14.332;2023-03-01T12:48:56;98911.47;;;23.04;17.56
75717;BME280;64333;50.138;14.332;2023-03-01T12:51:26;98899.50;;;22.16;18.34
75717;BME280;64333;50.138;14.332;2023-03-01T12:53:55;98914.41;;;22.27;18.09
75717;BME280;64333;50.138;14.332;2023-03-01T12:56:25;98904.38;;;22.21;18.25
75717;BME280;64333;50.138;14.332;2023-03-01T12:59:00;98910.97;;;22.15;18.55
75717;BME280;64333;50.138;14.332;2023-03-01T13:01:42;98862.09;;;22.44;17.78
75717;BME280;64333;50.138;14.332;2023-03-01T13:04:20;98899.09;;;22.21;18.16
75717;BME280;64333;50.138;14.332;2023-03-01T13:09:31;98897.13;;;22.56;17.69
75717;BME280;64333;50.138;14.332;2023-03-01T13:11:59;98890.19;;;21.02;18.51
75717;BME280;64333;50.138;14.332;2023-03-01T13:16:52;98892.72;;;21.48;18.66
75717;BME280;64333;50.138;14.332;2023-03-01T13:19:28;98885.34;;;21.53;18.55
75717;BME280;64333;50.138;14.332;2023-03-01T13:21:55;98869.81;;;21.72;18.68
75717;BME280;64333;50.138;14.332;2023-03-01T13:34:47;98872.66;;;21.69;18.28
75717;BME280;64333;50.138;14.332;2023-03-01T13:37:27;98863.59;;;20.72;19.38
75717;BME280;64333;50.138;14.332;2023-03-01T13:39:56;98780.75;;;20.57;18.90
75717;BME280;64333;50.138;14.332;2023-03-01T13:42:38;98840.00;;;20.49;19.20
75717;BME280;64333;50.138;14.332;2023-03-01T13:45:17;98863.47;;;19.92;20.33
75717;BME280;64333;50.138;14.332;2023-03-01T13:47:45;98868.56;;;18.97;20.97
75717;BME280;64333;50.138;14.332;2023-03-01T13:50:28;98846.84;;;19.45;20.81
75717;BME280;64333;50.138;14.332;2023-03-01T13:57:54;98850.84;;;19.38;21.23
75717;BME280;64333;50.138;14.332;2023-03-01T14:00:37;98845.13;;;19.56;20.95
75717;BME280;64333;50.138;14.332;2023-03-01T14:03:18;98857.44;;;19.06;20.63
75717;BME280;64333;50.138;14.332;2023-03-01T14:05:58;98849.13;;;18.49;21.03
75717;BME280;64333;50.138;14.332;2023-03-01T14:08:26;98846.44;;;19.01;21.03
75717;BME280;64333;50.138;14.332;2023-03-01T14:10:58;98860.00;;;19.56;21.05
75717;BME280;64333;50.138;14.332;2023-03-01T14:16:12;98852.31;;;19.29;21.19
75717;BME280;64333;50.138;14.332;2023-03-01T14:21:27;98851.97;;;19.46;21.11
75717;BME280;64333;50.138;14.332;2023-03-01T14:23:54;98808.13;;;18.62;22.72
75717;BME280;64333;50.138;14.332;2023-03-01T14:26:21;98855.84;;;18.78;22.62
75717;BME280;64333;50.138;14.332;2023-03-01T14:28:47;98830.41;;;18.16;22.73
75717;BME280;64333;50.138;14.332;2023-03-01T14:31:36;98850.94;;;18.61;22.81
75717;BME280;64333;50.138;14.332;2023-03-01T14:34:03;98850.59;;;18.53;22.84
75717;BME280;64333;50.138;14.332;2023-03-01T14:36:30;98790.66;;;17.58;23.37
75717;BME280;64333;50.138;14.332;2023-03-01T14:38:56;98838.13;;;18.44;22.96
75717;BME280;64333;50.138;14.332;2023-03-01T14:41:32;98843.31;;;17.24;24.33
75717;BME280;64333;50.138;14.332;2023-03-01T14:44:16;98829.88;;;17.30;24.54
75717;BME280;64333;50.138;14.332;2023-03-01T14:46:44;98829.69;;;17.19;24.44
75717;BME280;64333;50.138;14.332;2023-03-01T14:49:14;98820.47;;;17.14;26.91
75717;BME280;64333;50.138;14.332;2023-03-01T14:51:43;98805.25;;;16.51;25.81
75717;BME280;64333;50.138;14.332;2023-03-01T14:54:41;98821.28;;;16.59;25.35
75717;BME280;64333;50.138;14.332;2023-03-01T14:57:22;98821.00;;;16.63;25.35
75717;BME280;64333;50.138;14.332;2023-03-01T14:59:53;98818.13;;;15.79;26.54
75717;BME280;64333;50.138;14.332;2023-03-01T15:02:22;98804.91;;;14.04;29.28
75717;BME280;64333;50.138;14.332;2023-03-01T15:04:55;98817.78;;;12.79;30.98
75717;BME280;64333;50.138;14.332;2023-03-01T15:07:29;98826.88;;;11.45;33.14